createdAt,value
2018-09-30T00:00:33.955Z,7.50
2018-09-30T00:03:02.506Z,7.60
2018-09-30T00:05:31.672Z,7.60
2018-09-30T00:08:00.305Z,7.70
2018-09-30T00:10:28.873Z,7.70
2018-09-30T00:12:58.341Z,7.60
2018-09-30T00:15:27.991Z,7.30
2018-09-30T00:17:56.679Z,7.20
2018-09-30T00:20:26.173Z,7.30
2018-09-30T00:22:54.822Z,7.40
2018-09-30T00:25:28.929Z,7.30
2018-09-30T00:27:58.236Z,7.20
2018-09-30T00:30:26.949Z,7.20
2018-09-30T00:32:55.768Z,7.30
2018-09-30T00:35:24.434Z,7.30
2018-09-30T00:37:52.922Z,7.20
2018-09-30T00:40:21.600Z,6.90
2018-09-30T00:42:50.274Z,6.70
2018-09-30T00:45:19.249Z,6.70
2018-09-30T00:47:48.090Z,6.70
2018-09-30T00:50:17.887Z,6.70
2018-09-30T00:52:46.597Z,6.80
2018-09-30T00:55:15.981Z,6.90
2018-09-30T00:57:44.710Z,7.00
2018-09-30T01:00:13.949Z,6.80
2018-09-30T01:02:42.992Z,6.80
2018-09-30T01:05:12.398Z,6.80
2018-09-30T01:07:41.517Z,6.80
2018-09-30T01:10:10.119Z,6.80
2018-09-30T01:12:38.815Z,6.80
2018-09-30T01:15:07.719Z,6.90
2018-09-30T01:17:36.507Z,6.90
2018-09-30T01:20:05.423Z,6.90
2018-09-30T01:22:34.092Z,6.70
2018-09-30T01:25:02.632Z,6.50
2018-09-30T01:27:31.360Z,6.60
2018-09-30T01:30:00.734Z,6.70
2018-09-30T01:32:29.427Z,6.50
2018-09-30T01:34:58.732Z,6.60
2018-09-30T01:37:27.404Z,6.40
2018-09-30T01:39:56.598Z,6.30
2018-09-30T01:42:25.493Z,6.40
2018-09-30T01:44:54.117Z,6.30
2018-09-30T01:47:22.674Z,6.30
2018-09-30T01:49:52.295Z,6.30
2018-09-30T01:52:32.196Z,6.30
2018-09-30T01:55:01.023Z,6.30
2018-09-30T01:57:29.788Z,6.30
2018-09-30T01:59:58.596Z,6.30
2018-09-30T02:02:27.252Z,6.10
2018-09-30T02:04:56.069Z,6.00
2018-09-30T02:07:24.870Z,6.10
2018-09-30T02:09:53.403Z,6.20
2018-09-30T02:12:23.041Z,6.10
2018-09-30T02:14:52.077Z,6.10
2018-09-30T02:17:20.909Z,6.10
2018-09-30T02:19:49.708Z,6.10
2018-09-30T02:22:21.298Z,6.20
2018-09-30T02:24:49.981Z,6.10
2018-09-30T02:27:18.837Z,6.00
2018-09-30T02:29:47.767Z,6.00
2018-09-30T02:32:16.592Z,6.00
2018-09-30T02:34:45.216Z,6.00
2018-09-30T02:37:15.006Z,6.00
2018-09-30T02:39:43.707Z,6.10
2018-09-30T02:42:12.903Z,6.10
2018-09-30T02:44:41.899Z,5.90
2018-09-30T02:47:11.017Z,5.80
2018-09-30T02:49:40.674Z,5.70
2018-09-30T02:52:09.162Z,5.60
2018-09-30T02:54:37.872Z,5.50
2018-09-30T02:57:06.868Z,5.60
2018-09-30T02:59:36.830Z,5.60
2018-09-30T03:02:05.474Z,5.70
2018-09-30T03:04:34.659Z,5.70
2018-09-30T03:07:09.477Z,5.60
2018-09-30T03:09:39.995Z,5.60
2018-09-30T03:12:09.713Z,5.70
2018-09-30T03:14:38.180Z,5.70
2018-09-30T03:17:06.958Z,5.70
2018-09-30T03:19:35.886Z,5.80
2018-09-30T03:22:04.946Z,5.60
2018-09-30T03:24:34.642Z,5.30
2018-09-30T03:27:04.315Z,5.20
2018-09-30T03:29:33.004Z,5.20
2018-09-30T03:32:02.709Z,5.10
2018-09-30T03:34:31.389Z,5.10
2018-09-30T03:37:00.587Z,5.20
2018-09-30T03:39:30.585Z,5.20
2018-09-30T03:41:59.695Z,5.10
2018-09-30T03:44:28.275Z,4.90
2018-09-30T03:46:56.728Z,4.90
2018-09-30T03:49:25.765Z,4.90
2018-09-30T03:51:54.541Z,5.00
2018-09-30T03:54:23.234Z,4.90
2018-09-30T03:56:51.996Z,4.90
2018-09-30T03:59:20.713Z,4.90
2018-09-30T04:01:50.231Z,4.90
2018-09-30T04:04:18.865Z,4.90
2018-09-30T04:06:48.265Z,4.90
2018-09-30T04:09:16.794Z,4.80
2018-09-30T04:11:45.983Z,4.80
2018-09-30T04:14:14.573Z,4.90
2018-09-30T04:16:43.274Z,5.00
2018-09-30T04:19:12.133Z,5.00
2018-09-30T04:21:41.645Z,5.00
2018-09-30T04:24:11.423Z,5.20
2018-09-30T04:26:41.862Z,5.10
2018-09-30T04:29:10.710Z,5.00
2018-09-30T04:31:39.374Z,4.90
2018-09-30T04:34:08.553Z,4.90
2018-09-30T04:36:37.168Z,4.90
2018-09-30T04:39:08.893Z,5.00
2018-09-30T04:41:37.629Z,5.10
2018-09-30T04:44:06.728Z,5.20
2018-09-30T04:46:35.456Z,5.10
2018-09-30T04:49:04.882Z,5.00
2018-09-30T04:51:33.428Z,5.00
2018-09-30T04:54:02.114Z,4.90
2018-09-30T04:56:30.938Z,4.80
2018-09-30T04:59:00.290Z,4.60
2018-09-30T05:01:29.013Z,4.50
2018-09-30T05:03:57.800Z,4.50
2018-09-30T05:06:26.462Z,4.50
2018-09-30T05:08:55.047Z,4.50
2018-09-30T05:11:23.906Z,4.60
2018-09-30T05:13:52.521Z,4.60
2018-09-30T05:16:22.309Z,4.60
2018-09-30T05:18:51.116Z,4.70
2018-09-30T05:21:21.170Z,4.70
2018-09-30T05:23:49.789Z,4.70
2018-09-30T05:26:18.502Z,4.60
2018-09-30T05:28:47.122Z,4.70
2018-09-30T05:31:15.866Z,4.90
2018-09-30T05:33:44.995Z,5.00
2018-09-30T05:36:13.960Z,5.10
2018-09-30T05:38:42.425Z,5.20
2018-09-30T05:41:11.045Z,5.20
2018-09-30T05:43:39.753Z,5.30
2018-09-30T05:46:09.181Z,5.20
2018-09-30T05:48:37.841Z,5.30
2018-09-30T05:51:06.629Z,5.40
2018-09-30T05:53:35.638Z,5.30
2018-09-30T05:56:04.335Z,5.30
2018-09-30T05:58:33.922Z,5.30
2018-09-30T06:01:02.889Z,5.40
2018-09-30T06:03:31.810Z,5.50
2018-09-30T06:06:00.356Z,5.60
2018-09-30T06:08:29.148Z,5.60
2018-09-30T06:10:58.585Z,5.60
2018-09-30T06:13:27.210Z,5.60
2018-09-30T06:15:55.904Z,5.70
2018-09-30T06:18:24.542Z,5.80
2018-09-30T06:20:53.128Z,6.00
2018-09-30T06:23:21.702Z,6.20
2018-09-30T06:25:50.353Z,6.20
2018-09-30T06:28:19.565Z,6.30
2018-09-30T06:30:48.628Z,6.40
2018-09-30T06:33:17.216Z,6.60
2018-09-30T06:35:46.061Z,6.70
2018-09-30T06:38:14.766Z,6.90
2018-09-30T06:40:44.536Z,7.00
2018-09-30T06:43:13.378Z,7.10
2018-09-30T06:45:42.649Z,7.30
2018-09-30T06:48:11.304Z,7.40
2018-09-30T06:50:40.102Z,7.60
2018-09-30T06:53:08.561Z,7.80
2018-09-30T06:55:37.213Z,7.80
2018-09-30T06:58:06.102Z,8.00
2018-09-30T07:00:35.253Z,8.20
2018-09-30T07:03:04.468Z,8.30
2018-09-30T07:05:33.262Z,8.50
2018-09-30T07:08:02.462Z,8.70
2018-09-30T07:10:31.525Z,8.80
2018-09-30T07:13:00.089Z,9.10
2018-09-30T07:15:28.943Z,9.30
2018-09-30T07:17:58.018Z,9.50
2018-09-30T07:20:26.832Z,9.70
2018-09-30T07:22:55.417Z,9.90
2018-09-30T07:25:25.165Z,10.20
2018-09-30T07:27:54.526Z,10.50
2018-09-30T07:30:24.930Z,10.70
2018-09-30T07:32:53.598Z,10.90
2018-09-30T07:35:22.219Z,11.10
2018-09-30T07:37:50.802Z,11.40
2018-09-30T07:40:19.573Z,11.70
2018-09-30T07:42:48.405Z,11.80
2018-09-30T07:45:17.377Z,12.10
2018-09-30T07:47:45.977Z,12.40
2018-09-30T07:50:14.643Z,12.40
2018-09-30T07:52:43.421Z,12.60
2018-09-30T07:55:12.654Z,12.60
2018-09-30T07:57:41.383Z,12.60
2018-09-30T08:00:10.943Z,13.00
2018-09-30T08:02:40.524Z,13.40
2018-09-30T08:05:10.058Z,13.60
2018-09-30T08:07:38.640Z,13.70
2018-09-30T08:10:08.189Z,14.10
2018-09-30T08:12:38.299Z,14.30
2018-09-30T08:15:07.221Z,14.70
2018-09-30T08:17:36.765Z,14.90
2018-09-30T08:20:05.360Z,15.20
2018-09-30T08:22:34.132Z,15.40
2018-09-30T08:25:02.693Z,15.50
2018-09-30T08:27:31.639Z,15.70
2018-09-30T08:30:00.595Z,15.80
2018-09-30T08:32:29.156Z,15.80
2018-09-30T08:34:57.837Z,15.80
2018-09-30T08:37:33.237Z,16.10
2018-09-30T08:40:02.081Z,16.30
2018-09-30T08:42:31.378Z,16.30
2018-09-30T08:45:00.571Z,16.60
2018-09-30T08:47:29.253Z,16.70
2018-09-30T08:49:57.907Z,16.90
2018-09-30T08:52:26.474Z,17.00
2018-09-30T08:55:02.106Z,17.10
2018-09-30T08:57:30.669Z,17.30
2018-09-30T08:59:59.986Z,17.40
2018-09-30T09:02:28.576Z,17.60
2018-09-30T09:04:58.113Z,17.80
2018-09-30T09:07:26.598Z,17.50
2018-09-30T09:09:55.373Z,17.50
2018-09-30T09:12:24.092Z,17.80
2018-09-30T09:14:52.659Z,17.50
2018-09-30T09:17:21.146Z,17.30
2018-09-30T09:19:49.766Z,17.70
2018-09-30T09:22:18.363Z,17.90
2018-09-30T09:24:47.547Z,17.90
2018-09-30T09:27:16.828Z,18.10
2018-09-30T09:29:45.359Z,18.20
2018-09-30T09:32:14.118Z,18.40
2018-09-30T09:34:42.769Z,18.40
2018-09-30T09:37:11.271Z,18.60
2018-09-30T09:39:40.850Z,18.50
2018-09-30T09:42:09.975Z,18.60
2018-09-30T09:44:38.502Z,18.60
2018-09-30T09:47:07.182Z,18.80
2018-09-30T09:49:36.859Z,18.90
2018-09-30T09:52:05.492Z,19.00
2018-09-30T09:54:34.174Z,19.10
2018-09-30T09:57:02.840Z,19.10
2018-09-30T09:59:32.067Z,19.20
2018-09-30T10:02:00.582Z,19.20
2018-09-30T10:04:29.158Z,18.30
2018-09-30T10:06:57.787Z,18.10
2018-09-30T10:09:26.264Z,18.60
2018-09-30T10:11:54.937Z,18.40
2018-09-30T10:14:23.682Z,18.80
2018-09-30T10:16:52.283Z,19.10
2018-09-30T10:19:20.860Z,19.30
2018-09-30T10:21:49.384Z,18.90
2018-09-30T10:24:18.046Z,19.10
2018-09-30T10:26:46.699Z,19.20
2018-09-30T10:29:15.359Z,19.40
2018-09-30T10:31:43.965Z,19.60
2018-09-30T10:34:13.110Z,19.40
2018-09-30T10:36:41.829Z,19.60
2018-09-30T10:39:11.464Z,19.90
2018-09-30T10:41:40.310Z,19.50
2018-09-30T10:44:08.863Z,19.50
2018-09-30T10:46:38.107Z,19.10
2018-09-30T10:49:07.440Z,19.20
2018-09-30T10:51:37.115Z,19.60
2018-09-30T10:54:05.670Z,19.90
2018-09-30T10:56:34.267Z,20.10
2018-09-30T10:59:03.094Z,20.10
2018-09-30T11:01:31.720Z,20.00
2018-09-30T11:04:00.306Z,19.10
2018-09-30T11:06:29.004Z,18.90
2018-09-30T11:08:57.602Z,19.50
2018-09-30T11:11:26.586Z,19.70
2018-09-30T11:13:55.081Z,20.10
2018-09-30T11:16:23.713Z,20.40
2018-09-30T11:18:53.165Z,20.50
2018-09-30T11:21:22.297Z,19.90
2018-09-30T11:23:51.059Z,20.30
2018-09-30T11:26:20.332Z,20.60
2018-09-30T11:28:48.871Z,21.00
2018-09-30T11:31:17.454Z,21.30
2018-09-30T11:33:46.444Z,21.50
2018-09-30T11:36:15.008Z,20.60
2018-09-30T11:38:43.692Z,20.60
2018-09-30T11:41:12.407Z,20.80
2018-09-30T11:43:41.761Z,20.70
2018-09-30T11:46:10.915Z,20.70
2018-09-30T11:48:39.632Z,21.20
2018-09-30T11:51:08.601Z,21.70
2018-09-30T11:53:37.350Z,22.30
2018-09-30T11:56:06.660Z,22.30
2018-09-30T11:58:35.454Z,21.50
2018-09-30T12:01:04.582Z,21.30
2018-09-30T12:03:33.286Z,20.80
2018-09-30T12:06:01.949Z,21.20
2018-09-30T12:08:30.761Z,21.20
2018-09-30T12:10:59.554Z,20.90
2018-09-30T12:16:05.386Z,20.80
2018-09-30T12:18:34.015Z,21.20
2018-09-30T12:21:03.230Z,21.10
2018-09-30T12:23:31.794Z,20.70
2018-09-30T12:26:00.976Z,21.20
2018-09-30T12:28:30.187Z,21.70
2018-09-30T12:30:59.513Z,22.00
2018-09-30T12:33:28.152Z,21.30
2018-09-30T12:35:57.170Z,21.20
2018-09-30T12:38:25.673Z,21.40
2018-09-30T12:40:55.164Z,21.70
2018-09-30T12:43:23.735Z,22.00
2018-09-30T12:45:52.964Z,22.20
2018-09-30T12:48:21.553Z,22.40
2018-09-30T12:50:50.077Z,22.50
2018-09-30T12:53:18.673Z,22.70
2018-09-30T12:55:47.260Z,22.70
2018-09-30T12:58:16.077Z,22.60
2018-09-30T13:00:44.663Z,22.60
2018-09-30T13:03:13.336Z,22.70
2018-09-30T13:05:42.580Z,22.90
2018-09-30T13:08:11.179Z,23.00
2018-09-30T13:10:39.794Z,22.50
2018-09-30T13:13:08.353Z,21.80
2018-09-30T13:15:37.064Z,21.70
2018-09-30T13:18:05.596Z,22.00
2018-09-30T13:20:34.200Z,21.80
2018-09-30T13:23:02.804Z,21.90
2018-09-30T13:25:33.354Z,22.20
2018-09-30T13:28:01.905Z,22.40
2018-09-30T13:30:30.430Z,22.40
2018-09-30T13:32:59.702Z,21.90
2018-09-30T13:35:28.339Z,21.80
2018-09-30T13:37:57.978Z,21.80
2018-09-30T13:40:27.012Z,21.80
2018-09-30T13:42:56.112Z,21.40
2018-09-30T13:45:24.654Z,21.30
2018-09-30T13:47:53.309Z,21.60
2018-09-30T13:50:21.813Z,21.80
2018-09-30T13:52:50.413Z,21.80
2018-09-30T13:55:19.025Z,21.80
2018-09-30T13:57:47.495Z,21.70
2018-09-30T14:00:16.570Z,21.80
2018-09-30T14:02:45.918Z,21.80
2018-09-30T14:05:15.267Z,21.90
2018-09-30T14:07:43.797Z,21.60
2018-09-30T14:10:12.457Z,21.20
2018-09-30T14:12:40.999Z,21.20
2018-09-30T14:15:09.908Z,20.80
2018-09-30T14:17:38.442Z,20.70
2018-09-30T14:20:07.126Z,20.60
2018-09-30T14:22:35.607Z,20.80
2018-09-30T14:25:04.485Z,20.80
2018-09-30T14:27:33.288Z,20.80
2018-09-30T14:30:02.887Z,20.90
2018-09-30T14:32:32.288Z,20.80
2018-09-30T14:35:00.950Z,20.70
2018-09-30T14:37:29.587Z,20.60
2018-09-30T14:39:58.206Z,20.50
2018-09-30T14:42:26.813Z,20.40
2018-09-30T14:44:55.445Z,20.50
2018-09-30T14:47:23.978Z,20.40
2018-09-30T14:49:52.550Z,20.30
2018-09-30T14:52:21.754Z,20.40
2018-09-30T14:54:50.291Z,20.30
2018-09-30T14:57:18.820Z,20.30
2018-09-30T14:59:47.625Z,20.30
2018-09-30T15:02:16.400Z,20.10
2018-09-30T15:04:45.041Z,20.30
2018-09-30T15:07:13.644Z,20.20
2018-09-30T15:09:42.228Z,20.10
2018-09-30T15:12:10.713Z,20.10
2018-09-30T15:14:40.157Z,20.10
2018-09-30T15:17:08.817Z,20.10
2018-09-30T15:19:37.553Z,20.10
2018-09-30T15:22:06.106Z,20.10
2018-09-30T15:24:35.503Z,20.10
2018-09-30T15:27:04.044Z,20.10
2018-09-30T15:29:32.677Z,20.10
2018-09-30T15:32:01.277Z,20.00
2018-09-30T15:34:29.798Z,19.90
2018-09-30T15:36:58.608Z,20.00
2018-09-30T15:39:27.144Z,20.00
2018-09-30T15:41:55.663Z,19.90
2018-09-30T15:44:24.235Z,19.80
2018-09-30T15:46:53.596Z,19.70
2018-09-30T15:49:22.221Z,19.60
2018-09-30T15:51:51.838Z,19.50
2018-09-30T15:54:20.450Z,19.50
2018-09-30T15:56:49.235Z,19.50
2018-09-30T15:59:18.201Z,19.40
2018-09-30T16:01:47.075Z,19.40
2018-09-30T16:04:15.896Z,19.40
2018-09-30T16:06:46.950Z,19.30
2018-09-30T16:09:16.443Z,19.40
2018-09-30T16:11:46.470Z,19.30
2018-09-30T16:14:15.253Z,19.30
2018-09-30T16:16:44.292Z,19.20
2018-09-30T16:19:13.019Z,19.10
2018-09-30T16:21:41.573Z,19.10
2018-09-30T16:24:10.477Z,19.00
2018-09-30T16:26:39.485Z,19.00
2018-09-30T16:29:08.116Z,18.90
2018-09-30T16:31:36.657Z,18.80
2018-09-30T16:34:05.305Z,18.70
2018-09-30T16:36:34.171Z,18.70
2018-09-30T16:39:02.709Z,18.60
2018-09-30T16:41:31.844Z,18.50
2018-09-30T16:44:00.364Z,18.50
2018-09-30T16:46:29.148Z,18.40
2018-09-30T16:48:58.606Z,18.40
2018-09-30T16:51:27.195Z,18.30
2018-09-30T16:53:56.641Z,18.10
2018-09-30T16:56:26.182Z,18.00
2018-09-30T16:58:54.996Z,18.00
2018-09-30T17:01:23.521Z,17.90
2018-09-30T17:03:52.135Z,17.90
2018-09-30T17:06:21.611Z,17.70
2018-09-30T17:08:50.222Z,17.60
2018-09-30T17:11:18.871Z,17.50
2018-09-30T17:13:47.741Z,17.30
2018-09-30T17:16:16.431Z,17.20
2018-09-30T17:18:45.045Z,17.00
2018-09-30T17:21:14.142Z,16.90
2018-09-30T17:23:42.672Z,16.80
2018-09-30T17:26:11.458Z,16.60
2018-09-30T17:28:40.057Z,16.60
2018-09-30T17:31:08.631Z,16.60
2018-09-30T17:33:37.490Z,16.70
2018-09-30T17:36:06.597Z,16.70
2018-09-30T17:38:35.272Z,16.70
2018-09-30T17:41:03.791Z,16.80
2018-09-30T17:43:33.218Z,16.70
2018-09-30T17:46:01.780Z,16.50
2018-09-30T17:48:31.320Z,16.50
2018-09-30T17:50:59.935Z,16.30
2018-09-30T17:53:28.502Z,16.00
2018-09-30T17:55:57.231Z,15.90
2018-09-30T17:58:25.737Z,15.90
2018-09-30T18:00:55.113Z,15.80
2018-09-30T18:03:23.707Z,15.80
2018-09-30T18:05:52.385Z,15.80
2018-09-30T18:08:21.078Z,15.80
2018-09-30T18:10:49.786Z,15.80
2018-09-30T18:13:18.502Z,15.70
2018-09-30T18:15:47.690Z,15.60
2018-09-30T18:18:23.109Z,15.50
2018-09-30T18:20:52.876Z,15.40
2018-09-30T18:23:29.329Z,15.30
2018-09-30T18:25:59.563Z,15.30
2018-09-30T18:28:35.872Z,15.30
2018-09-30T18:31:41.727Z,15.30
2018-09-30T18:34:12.730Z,15.30
2018-09-30T18:36:42.001Z,15.10
2018-09-30T18:39:12.312Z,15.10
2018-09-30T18:41:41.419Z,15.10
2018-09-30T18:44:11.653Z,15.10
2018-09-30T18:46:40.615Z,15.10
2018-09-30T18:49:09.813Z,15.00
2018-09-30T18:51:38.813Z,14.80
2018-09-30T18:54:07.834Z,14.50
2018-09-30T18:56:36.965Z,14.40
2018-09-30T18:59:06.233Z,14.50
2018-09-30T19:01:36.629Z,14.50
2018-09-30T19:04:05.827Z,14.50
2018-09-30T19:06:35.023Z,14.50
2018-09-30T19:09:04.984Z,14.50
2018-09-30T19:11:33.938Z,14.40
2018-09-30T19:14:03.225Z,14.40
2018-09-30T19:16:33.361Z,14.40
2018-09-30T19:19:02.524Z,14.50
2018-09-30T19:21:31.627Z,14.50
2018-09-30T19:24:00.690Z,14.60
2018-09-30T19:26:29.574Z,14.60
2018-09-30T19:28:58.285Z,14.60
2018-09-30T19:31:27.554Z,14.60
2018-09-30T19:33:56.500Z,14.60
2018-09-30T19:36:25.204Z,14.60
2018-09-30T19:38:53.656Z,14.60
2018-09-30T19:41:22.310Z,14.60
2018-09-30T19:43:50.934Z,14.60
2018-09-30T19:46:19.719Z,14.60
2018-09-30T19:48:48.875Z,14.50
2018-09-30T19:51:17.569Z,14.40
2018-09-30T19:53:46.162Z,14.30
2018-09-30T19:56:14.951Z,14.20
2018-09-30T19:58:44.112Z,13.90
2018-09-30T20:01:12.899Z,13.80
2018-09-30T20:03:41.730Z,13.80
2018-09-30T20:06:10.495Z,13.80
2018-09-30T20:08:39.777Z,13.70
2018-09-30T20:11:08.358Z,13.80
2018-09-30T20:13:37.598Z,13.80
2018-09-30T20:16:06.198Z,13.80
2018-09-30T20:18:34.974Z,13.80
2018-09-30T20:21:04.252Z,13.80
2018-09-30T20:23:32.838Z,13.70
2018-09-30T20:26:01.537Z,13.50
2018-09-30T20:28:30.255Z,13.50
2018-09-30T20:30:59.613Z,13.50
2018-09-30T20:33:28.397Z,13.40
2018-09-30T20:35:57.960Z,13.40
2018-09-30T20:38:27.539Z,13.40
2018-09-30T20:40:56.532Z,13.40
2018-09-30T20:43:25.058Z,13.30
2018-09-30T20:45:53.604Z,13.30
2018-09-30T20:48:22.236Z,13.20
2018-09-30T20:50:52.141Z,13.10
2018-09-30T20:53:20.685Z,13.10
2018-09-30T20:55:49.982Z,13.10
2018-09-30T20:58:18.527Z,13.20
2018-09-30T21:00:47.437Z,13.20
2018-09-30T21:03:17.036Z,13.20
2018-09-30T21:06:08.249Z,13.20
2018-09-30T21:08:37.193Z,13.10
2018-09-30T21:11:06.289Z,13.10
2018-09-30T21:13:35.747Z,13.00
2018-09-30T21:16:05.304Z,13.10
2018-09-30T21:18:34.975Z,13.00
2018-09-30T21:21:03.568Z,13.00
2018-09-30T21:23:32.144Z,13.00
2018-09-30T21:26:01.509Z,13.00
2018-09-30T21:28:30.276Z,13.00
2018-09-30T21:30:59.878Z,12.90
2018-09-30T21:33:29.119Z,12.90
2018-09-30T21:35:57.775Z,12.90
2018-09-30T21:38:26.289Z,12.90
2018-09-30T21:40:55.440Z,12.90
2018-09-30T21:43:24.194Z,12.80
2018-09-30T21:45:53.016Z,12.80
2018-09-30T21:48:21.939Z,12.80
2018-09-30T21:50:50.632Z,12.70
2018-09-30T21:53:19.574Z,12.70
2018-09-30T21:55:48.276Z,12.70
2018-09-30T21:58:16.910Z,12.70
2018-09-30T22:00:51.619Z,12.70
2018-09-30T22:03:20.477Z,12.70
2018-09-30T22:05:49.062Z,12.60
2018-09-30T22:08:17.657Z,12.50
2018-09-30T22:14:46.987Z,12.40
2018-09-30T22:17:15.590Z,12.30
2018-09-30T22:19:44.208Z,12.30
2018-09-30T22:22:13.194Z,12.30
2018-09-30T22:24:42.210Z,12.20
2018-09-30T22:27:11.014Z,11.90
2018-09-30T22:29:42.331Z,12.00
2018-09-30T22:32:11.192Z,12.00
2018-09-30T22:34:40.737Z,11.80
2018-09-30T22:37:09.346Z,11.80
2018-09-30T22:39:38.093Z,11.70
2018-09-30T22:42:06.916Z,11.50
2018-09-30T22:44:35.946Z,11.40
2018-09-30T22:47:04.549Z,11.30
2018-09-30T22:49:33.750Z,11.40
2018-09-30T22:52:03.523Z,11.40
2018-09-30T22:54:32.403Z,11.40
2018-09-30T22:57:02.160Z,11.50
2018-09-30T22:59:31.759Z,11.60
2018-09-30T23:02:01.258Z,11.60
2018-09-30T23:04:30.401Z,11.60
2018-09-30T23:06:59.148Z,11.50
2018-09-30T23:09:28.406Z,11.40
2018-09-30T23:11:57.681Z,11.40
2018-09-30T23:14:26.497Z,11.40
2018-09-30T23:16:56.061Z,11.40
2018-09-30T23:19:26.332Z,11.30
2018-09-30T23:21:55.060Z,11.30
2018-09-30T23:24:23.961Z,11.30
2018-09-30T23:26:53.229Z,11.20
2018-09-30T23:29:22.860Z,11.30
2018-09-30T23:31:51.677Z,11.40
2018-09-30T23:34:20.568Z,11.50
2018-09-30T23:36:49.483Z,11.50
2018-09-30T23:39:18.345Z,11.50
2018-09-30T23:41:47.847Z,11.40
2018-09-30T23:44:17.419Z,11.40
2018-09-30T23:46:46.505Z,11.40
2018-09-30T23:49:15.338Z,11.40
2018-09-30T23:51:44.028Z,11.50
2018-09-30T23:54:12.652Z,11.60
2018-09-30T23:56:41.712Z,11.50
2018-09-30T23:59:10.378Z,11.40
